sensor_id;sensor_type;location;lat;lon;timestamp;pressure;altitude;pressure_sealevel;temperature;humidity
54808;BME280;40708;50.364;7.550;2024-01-30T00:01:35;101871.59;;;4.56;100.00
54808;BME280;40708;50.364;7.550;2024-01-30T00:04:02;101866.84;;;4.49;100.00
54808;BME280;40708;50.364;7.550;2024-01-30T00:06:27;101872.88;;;4.47;100.00
54808;BME280;40708;50.364;7.550;2024-01-30T00:08:52;101869.19;;;4.43;100.00
54808;BME280;40708;50.364;7.550;2024-01-30T00:11:18;101864.25;;;4.32;100.00
54808;BME280;40708;50.364;7.550;2024-01-30T00:13:43;101864.88;;;4.26;100.00
54808;BME280;40708;50.364;7.550;2024-01-30T00:16:20;101872.44;;;4.20;100.00
54808;BME280;40708;50.364;7.550;2024-01-30T00:18:45;101867.09;;;4.18;100.00
54808;BME280;40708;50.364;7.550;2024-01-30T00:21:11;101874.94;;;4.17;100.00
54808;BME280;40708;50.364;7.550;2024-01-30T00:23:36;101876.44;;;4.12;100.00
54808;BME280;40708;50.364;7.550;2024-01-30T00:26:01;101882.34;;;4.08;100.00
54808;BME280;40708;50.364;7.550;2024-01-30T00:28:26;101883.41;;;4.11;100.00
54808;BME280;40708;50.364;7.550;2024-01-30T00:30:52;101887.47;;;4.05;100.00
54808;BME280;40708;50.364;7.550;2024-01-30T00:33:17;101886.47;;;4.03;100.00
54808;BME280;40708;50.364;7.550;2024-01-30T00:35:42;101886.09;;;3.95;100.00
54808;BME280;40708;50.364;7.550;2024-01-30T00:38:07;101888.34;;;3.88;100.00
54808;BME280;40708;50.364;7.550;2024-01-30T00:40:33;101899.34;;;3.81;100.00
54808;BME280;40708;50.364;7.550;2024-01-30T00:42:58;101880.69;;;3.75;100.00
54808;BME280;40708;50.364;7.550;2024-01-30T00:45:23;101887.19;;;3.65;100.00
54808;BME280;40708;50.364;7.550;2024-01-30T00:47:48;101896.03;;;3.67;100.00
54808;BME280;40708;50.364;7.550;2024-01-30T00:50:14;101896.13;;;3.69;100.00
54808;BME280;40708;50.364;7.550;2024-01-30T00:52:39;101895.16;;;3.67;100.00
54808;BME280;40708;50.364;7.550;2024-01-30T00:55:06;101887.78;;;3.59;100.00
54808;BME280;40708;50.364;7.550;2024-01-30T00:57:31;101896.22;;;3.54;100.00
54808;BME280;40708;50.364;7.550;2024-01-30T00:59:57;101894.28;;;3.50;100.00
54808;BME280;40708;50.364;7.550;2024-01-30T01:02:22;101891.41;;;3.45;100.00
54808;BME280;40708;50.364;7.550;2024-01-30T01:04:47;101891.97;;;3.40;100.00
54808;BME280;40708;50.364;7.550;2024-01-30T01:07:13;101890.44;;;3.43;100.00
54808;BME280;40708;50.364;7.550;2024-01-30T01:09:38;101887.56;;;3.39;100.00
54808;BME280;40708;50.364;7.550;2024-01-30T01:12:04;101886.66;;;3.38;100.00
54808;BME280;40708;50.364;7.550;2024-01-30T01:14:30;101879.72;;;3.39;100.00
54808;BME280;40708;50.364;7.550;2024-01-30T01:16:55;101880.91;;;3.45;100.00
54808;BME280;40708;50.364;7.550;2024-01-30T01:19:21;101876.41;;;3.43;100.00
54808;BME280;40708;50.364;7.550;2024-01-30T01:21:46;101879.56;;;3.36;100.00
54808;BME280;40708;50.364;7.550;2024-01-30T01:24:12;101881.84;;;3.30;100.00
54808;BME280;40708;50.364;7.550;2024-01-30T01:26:37;101872.91;;;3.26;100.00
54808;BME280;40708;50.364;7.550;2024-01-30T01:29:02;101879.81;;;3.24;100.00
54808;BME280;40708;50.364;7.550;2024-01-30T01:31:35;101882.03;;;3.17;100.00
54808;BME280;40708;50.364;7.550;2024-01-30T01:34:00;101880.31;;;3.17;100.00
54808;BME280;40708;50.364;7.550;2024-01-30T01:36:25;101878.16;;;3.10;100.00
54808;BME280;40708;50.364;7.550;2024-01-30T01:38:50;101877.28;;;3.10;100.00
54808;BME280;40708;50.364;7.550;2024-01-30T01:41:16;101878.69;;;3.03;100.00
54808;BME280;40708;50.364;7.550;2024-01-30T01:43:41;101877.31;;;2.93;100.00
54808;BME280;40708;50.364;7.550;2024-01-30T01:46:06;101878.84;;;2.90;100.00
54808;BME280;40708;50.364;7.550;2024-01-30T01:48:33;101886.13;;;2.95;100.00
54808;BME280;40708;50.364;7.550;2024-01-30T01:50:59;101887.13;;;2.97;100.00
54808;BME280;40708;50.364;7.550;2024-01-30T01:53:24;101885.22;;;2.95;100.00
54808;BME280;40708;50.364;7.550;2024-01-30T01:55:49;101890.13;;;2.89;100.00
54808;BME280;40708;50.364;7.550;2024-01-30T01:58:15;101892.75;;;2.89;100.00
54808;BME280;40708;50.364;7.550;2024-01-30T02:00:41;101888.25;;;2.86;100.00
54808;BME280;40708;50.364;7.550;2024-01-30T02:03:10;101889.97;;;2.86;100.00
54808;BME280;40708;50.364;7.550;2024-01-30T02:05:37;101894.97;;;2.81;100.00
54808;BME280;40708;50.364;7.550;2024-01-30T02:08:03;101898.34;;;2.79;100.00
54808;BME280;40708;50.364;7.550;2024-01-30T02:10:29;101893.47;;;2.70;100.00
54808;BME280;40708;50.364;7.550;2024-01-30T02:12:54;101897.09;;;2.72;100.00
54808;BME280;40708;50.364;7.550;2024-01-30T02:15:19;101898.72;;;2.70;100.00
54808;BME280;40708;50.364;7.550;2024-01-30T02:17:44;101894.72;;;2.61;100.00
54808;BME280;40708;50.364;7.550;2024-01-30T02:20:10;101898.88;;;2.57;100.00
54808;BME280;40708;50.364;7.550;2024-01-30T02:22:36;101898.13;;;2.60;100.00
54808;BME280;40708;50.364;7.550;2024-01-30T02:25:02;101896.31;;;2.59;100.00
54808;BME280;40708;50.364;7.550;2024-01-30T02:27:27;101897.00;;;2.55;100.00
54808;BME280;40708;50.364;7.550;2024-01-30T02:29:53;101896.09;;;2.54;100.00
54808;BME280;40708;50.364;7.550;2024-01-30T02:32:18;101902.47;;;2.59;100.00
54808;BME280;40708;50.364;7.550;2024-01-30T02:34:43;101888.47;;;2.59;100.00
54808;BME280;40708;50.364;7.550;2024-01-30T02:37:09;101894.63;;;2.59;100.00
54808;BME280;40708;50.364;7.550;2024-01-30T02:39:34;101890.09;;;2.57;100.00
54808;BME280;40708;50.364;7.550;2024-01-30T02:41:59;101889.31;;;2.58;100.00
54808;BME280;40708;50.364;7.550;2024-01-30T02:44:25;101896.25;;;2.57;100.00
54808;BME280;40708;50.364;7.550;2024-01-30T02:46:50;101898.63;;;2.53;100.00
54808;BME280;40708;50.364;7.550;2024-01-30T02:49:15;101896.72;;;2.50;100.00
54808;BME280;40708;50.364;7.550;2024-01-30T02:51:41;101902.53;;;2.45;100.00
54808;BME280;40708;50.364;7.550;2024-01-30T02:54:06;101901.34;;;2.39;100.00
54808;BME280;40708;50.364;7.550;2024-01-30T02:56:31;101904.53;;;2.34;100.00
54808;BME280;40708;50.364;7.550;2024-01-30T02:58:56;101908.78;;;2.32;100.00
54808;BME280;40708;50.364;7.550;2024-01-30T03:01:22;101905.38;;;2.33;100.00
54808;BME280;40708;50.364;7.550;2024-01-30T03:03:49;101895.06;;;2.36;100.00
54808;BME280;40708;50.364;7.550;2024-01-30T03:06:14;101890.56;;;2.33;100.00
54808;BME280;40708;50.364;7.550;2024-01-30T03:08:42;101895.44;;;2.27;100.00
54808;BME280;40708;50.364;7.550;2024-01-30T03:11:07;101890.94;;;2.25;100.00
54808;BME280;40708;50.364;7.550;2024-01-30T03:13:33;101896.25;;;2.26;100.00
54808;BME280;40708;50.364;7.550;2024-01-30T03:15:58;101890.75;;;2.22;100.00
54808;BME280;40708;50.364;7.550;2024-01-30T03:18:23;101894.00;;;2.18;100.00
54808;BME280;40708;50.364;7.550;2024-01-30T03:20:48;101890.41;;;2.16;100.00
54808;BME280;40708;50.364;7.550;2024-01-30T03:23:14;101890.66;;;2.20;100.00
54808;BME280;40708;50.364;7.550;2024-01-30T03:25:39;101879.03;;;2.15;100.00
54808;BME280;40708;50.364;7.550;2024-01-30T03:28:04;101887.53;;;2.11;100.00
54808;BME280;40708;50.364;7.550;2024-01-30T03:30:30;101885.00;;;2.13;100.00
54808;BME280;40708;50.364;7.550;2024-01-30T03:32:55;101886.88;;;2.15;100.00
54808;BME280;40708;50.364;7.550;2024-01-30T03:35:20;101889.31;;;2.12;100.00
54808;BME280;40708;50.364;7.550;2024-01-30T03:37:45;101889.59;;;2.17;100.00
54808;BME280;40708;50.364;7.550;2024-01-30T03:40:11;101886.81;;;2.14;100.00
54808;BME280;40708;50.364;7.550;2024-01-30T03:42:36;101887.44;;;2.10;100.00
54808;BME280;40708;50.364;7.550;2024-01-30T03:45:02;101892.84;;;2.13;100.00
54808;BME280;40708;50.364;7.550;2024-01-30T03:47:27;101897.19;;;2.12;100.00
54808;BME280;40708;50.364;7.550;2024-01-30T03:49:52;101896.94;;;2.08;100.00
54808;BME280;40708;50.364;7.550;2024-01-30T03:52:18;101897.72;;;2.07;100.00
54808;BME280;40708;50.364;7.550;2024-01-30T03:54:43;101900.09;;;2.02;100.00
54808;BME280;40708;50.364;7.550;2024-01-30T03:57:08;101891.88;;;1.96;100.00
54808;BME280;40708;50.364;7.550;2024-01-30T03:59:34;101899.84;;;1.98;100.00
54808;BME280;40708;50.364;7.550;2024-01-30T04:01:59;101895.41;;;1.97;100.00
54808;BME280;40708;50.364;7.550;2024-01-30T04:04:24;101882.88;;;1.91;100.00
54808;BME280;40708;50.364;7.550;2024-01-30T04:06:50;101893.78;;;1.99;100.00
54808;BME280;40708;50.364;7.550;2024-01-30T04:09:15;101897.28;;;1.99;100.00
54808;BME280;40708;50.364;7.550;2024-01-30T04:11:41;101899.66;;;1.95;100.00
54808;BME280;40708;50.364;7.550;2024-01-30T04:14:07;101903.19;;;1.95;100.00
54808;BME280;40708;50.364;7.550;2024-01-30T04:16:32;101894.31;;;1.93;100.00
54808;BME280;40708;50.364;7.550;2024-01-30T04:18:58;101895.59;;;2.00;100.00
54808;BME280;40708;50.364;7.550;2024-01-30T04:21:23;101892.06;;;1.99;100.00
54808;BME280;40708;50.364;7.550;2024-01-30T04:23:48;101894.59;;;1.98;100.00
54808;BME280;40708;50.364;7.550;2024-01-30T04:26:14;101898.13;;;1.98;100.00
54808;BME280;40708;50.364;7.550;2024-01-30T04:28:44;101895.03;;;1.91;100.00
54808;BME280;40708;50.364;7.550;2024-01-30T04:31:10;101905.88;;;1.97;100.00
54808;BME280;40708;50.364;7.550;2024-01-30T04:33:35;101904.97;;;1.96;100.00
54808;BME280;40708;50.364;7.550;2024-01-30T04:36:01;101903.63;;;1.88;100.00
54808;BME280;40708;50.364;7.550;2024-01-30T04:38:26;101896.50;;;1.86;100.00
54808;BME280;40708;50.364;7.550;2024-01-30T04:40:51;101901.00;;;1.88;100.00
54808;BME280;40708;50.364;7.550;2024-01-30T04:43:16;101896.31;;;1.97;100.00
54808;BME280;40708;50.364;7.550;2024-01-30T04:45:42;101901.72;;;2.00;100.00
54808;BME280;40708;50.364;7.550;2024-01-30T04:48:07;101899.00;;;1.99;100.00
54808;BME280;40708;50.364;7.550;2024-01-30T04:50:32;101904.00;;;1.94;100.00
54808;BME280;40708;50.364;7.550;2024-01-30T04:52:58;101898.28;;;2.01;100.00
54808;BME280;40708;50.364;7.550;2024-01-30T04:55:23;101894.50;;;2.11;100.00
54808;BME280;40708;50.364;7.550;2024-01-30T04:57:49;101897.22;;;2.28;100.00
54808;BME280;40708;50.364;7.550;2024-01-30T05:00:14;101901.03;;;2.33;100.00
54808;BME280;40708;50.364;7.550;2024-01-30T05:02:40;101902.56;;;2.30;100.00
54808;BME280;40708;50.364;7.550;2024-01-30T05:05:05;101895.53;;;2.29;100.00
54808;BME280;40708;50.364;7.550;2024-01-30T05:07:31;101898.88;;;2.26;100.00
54808;BME280;40708;50.364;7.550;2024-01-30T05:09:56;101896.25;;;2.26;100.00
54808;BME280;40708;50.364;7.550;2024-01-30T05:12:21;101893.63;;;2.26;100.00
54808;BME280;40708;50.364;7.550;2024-01-30T05:14:46;101909.00;;;2.20;100.00
54808;BME280;40708;50.364;7.550;2024-01-30T05:17:12;101893.13;;;2.17;100.00
54808;BME280;40708;50.364;7.550;2024-01-30T05:19:38;101894.38;;;2.09;100.00
54808;BME280;40708;50.364;7.550;2024-01-30T05:22:03;101891.63;;;2.06;100.00
54808;BME280;40708;50.364;7.550;2024-01-30T05:24:29;101883.41;;;2.00;100.00
54808;BME280;40708;50.364;7.550;2024-01-30T05:26:54;101883.03;;;1.94;100.00
54808;BME280;40708;50.364;7.550;2024-01-30T05:29:19;101897.41;;;1.86;100.00
54808;BME280;40708;50.364;7.550;2024-01-30T05:31:44;101902.28;;;1.80;100.00
54808;BME280;40708;50.364;7.550;2024-01-30T05:34:10;101903.97;;;1.79;100.00
54808;BME280;40708;50.364;7.550;2024-01-30T05:36:35;101900.56;;;1.80;100.00
54808;BME280;40708;50.364;7.550;2024-01-30T05:39:00;101904.47;;;1.87;100.00
54808;BME280;40708;50.364;7.550;2024-01-30T05:41:26;101905.34;;;1.88;100.00
54808;BME280;40708;50.364;7.550;2024-01-30T05:43:51;101910.97;;;1.79;100.00
54808;BME280;40708;50.364;7.550;2024-01-30T05:46:16;101913.56;;;1.79;100.00
54808;BME280;40708;50.364;7.550;2024-01-30T05:48:41;101909.31;;;1.81;100.00
54808;BME280;40708;50.364;7.550;2024-01-30T05:51:07;101907.16;;;1.74;100.00
54808;BME280;40708;50.364;7.550;2024-01-30T05:53:33;101910.59;;;1.73;100.00
54808;BME280;40708;50.364;7.550;2024-01-30T05:56:01;101906.09;;;1.70;100.00
54808;BME280;40708;50.364;7.550;2024-01-30T05:58:26;101907.34;;;1.62;100.00
54808;BME280;40708;50.364;7.550;2024-01-30T06:00:51;101911.47;;;1.59;100.00
54808;BME280;40708;50.364;7.550;2024-01-30T06:03:17;101901.66;;;1.55;100.00
54808;BME280;40708;50.364;7.550;2024-01-30T06:05:42;101900.75;;;1.54;100.00
54808;BME280;40708;50.364;7.550;2024-01-30T06:08:07;101904.28;;;1.55;100.00
54808;BME280;40708;50.364;7.550;2024-01-30T06:10:32;101900.84;;;1.56;100.00
54808;BME280;40708;50.364;7.550;2024-01-30T06:12:58;101899.94;;;1.55;100.00
54808;BME280;40708;50.364;7.550;2024-01-30T06:15:23;101904.19;;;1.53;100.00
54808;BME280;40708;50.364;7.550;2024-01-30T06:17:48;101903.47;;;1.56;100.00
54808;BME280;40708;50.364;7.550;2024-01-30T06:20:13;101903.19;;;1.51;100.00
54808;BME280;40708;50.364;7.550;2024-01-30T06:22:39;101910.94;;;1.50;100.00
54808;BME280;40708;50.364;7.550;2024-01-30T06:25:04;101898.56;;;1.47;100.00
54808;BME280;40708;50.364;7.550;2024-01-30T06:27:29;101916.81;;;1.46;100.00
54808;BME280;40708;50.364;7.550;2024-01-30T06:29:55;101908.97;;;1.46;100.00
54808;BME280;40708;50.364;7.550;2024-01-30T06:32:20;101909.31;;;1.37;100.00
54808;BME280;40708;50.364;7.550;2024-01-30T06:34:45;101911.91;;;1.37;100.00
54808;BME280;40708;50.364;7.550;2024-01-30T06:37:10;101908.69;;;1.41;100.00
54808;BME280;40708;50.364;7.550;2024-01-30T06:39:36;101913.09;;;1.42;100.00
54808;BME280;40708;50.364;7.550;2024-01-30T06:42:01;101911.19;;;1.40;100.00
54808;BME280;40708;50.364;7.550;2024-01-30T06:44:26;101907.78;;;1.41;100.00
54808;BME280;40708;50.364;7.550;2024-01-30T06:46:52;101904.88;;;1.36;100.00
54808;BME280;40708;50.364;7.550;2024-01-30T06:49:17;101911.19;;;1.40;100.00
54808;BME280;40708;50.364;7.550;2024-01-30T06:51:42;101910.22;;;1.38;100.00
54808;BME280;40708;50.364;7.550;2024-01-30T06:54:07;101918.44;;;1.44;100.00
54808;BME280;40708;50.364;7.550;2024-01-30T06:56:33;101922.84;;;1.45;100.00
54808;BME280;40708;50.364;7.550;2024-01-30T06:58:59;101922.56;;;1.40;100.00
54808;BME280;40708;50.364;7.550;2024-01-30T07:01:28;101920.47;;;1.35;100.00
54808;BME280;40708;50.364;7.550;2024-01-30T07:03:54;101923.03;;;1.33;100.00
54808;BME280;40708;50.364;7.550;2024-01-30T07:06:20;101926.44;;;1.32;100.00
54808;BME280;40708;50.364;7.550;2024-01-30T07:08:45;101922.31;;;1.36;100.00
54808;BME280;40708;50.364;7.550;2024-01-30T07:11:10;101925.00;;;1.37;100.00
54808;BME280;40708;50.364;7.550;2024-01-30T07:13:37;101919.03;;;1.40;100.00
54808;BME280;40708;50.364;7.550;2024-01-30T07:16:03;101927.25;;;1.46;100.00
54808;BME280;40708;50.364;7.550;2024-01-30T07:18:28;101923.94;;;1.48;100.00
54808;BME280;40708;50.364;7.550;2024-01-30T07:20:53;101917.44;;;1.56;100.00
54808;BME280;40708;50.364;7.550;2024-01-30T07:23:18;101925.38;;;1.58;100.00
54808;BME280;40708;50.364;7.550;2024-01-30T07:25:44;101921.34;;;1.63;100.00
54808;BME280;40708;50.364;7.550;2024-01-30T07:28:14;101932.59;;;1.62;100.00
54808;BME280;40708;50.364;7.550;2024-01-30T07:30:42;101937.91;;;1.63;100.00
54808;BME280;40708;50.364;7.550;2024-01-30T07:33:07;101938.03;;;1.65;100.00
54808;BME280;40708;50.364;7.550;2024-01-30T07:35:33;101943.88;;;1.75;100.00
54808;BME280;40708;50.364;7.550;2024-01-30T07:37:58;101946.88;;;1.82;100.00
54808;BME280;40708;50.364;7.550;2024-01-30T07:40:24;101950.91;;;1.91;100.00
54808;BME280;40708;50.364;7.550;2024-01-30T07:42:49;101951.28;;;1.97;100.00
54808;BME280;40708;50.364;7.550;2024-01-30T07:45:14;101950.91;;;2.06;100.00
54808;BME280;40708;50.364;7.550;2024-01-30T07:47:40;101948.81;;;2.15;100.00
54808;BME280;40708;50.364;7.550;2024-01-30T07:50:05;101954.41;;;2.21;100.00
54808;BME280;40708;50.364;7.550;2024-01-30T07:52:31;101941.59;;;2.25;100.00
54808;BME280;40708;50.364;7.550;2024-01-30T07:54:56;101944.47;;;2.45;100.00
54808;BME280;40708;50.364;7.550;2024-01-30T07:57:21;101956.69;;;2.60;100.00
54808;BME280;40708;50.364;7.550;2024-01-30T07:59:47;101953.91;;;2.57;100.00
54808;BME280;40708;50.364;7.550;2024-01-30T08:02:12;101961.63;;;2.70;100.00
54808;BME280;40708;50.364;7.550;2024-01-30T08:04:38;101946.59;;;2.82;100.00
54808;BME280;40708;50.364;7.550;2024-01-30T08:07:03;101952.84;;;3.00;100.00
54808;BME280;40708;50.364;7.550;2024-01-30T08:09:29;101947.34;;;3.12;100.00
54808;BME280;40708;50.364;7.550;2024-01-30T08:11:54;101946.22;;;3.23;100.00
54808;BME280;40708;50.364;7.550;2024-01-30T08:14:19;101949.31;;;3.32;100.00
54808;BME280;40708;50.364;7.550;2024-01-30T08:16:44;101952.00;;;3.50;100.00
54808;BME280;40708;50.364;7.550;2024-01-30T08:19:10;101955.25;;;3.62;100.00
54808;BME280;40708;50.364;7.550;2024-01-30T08:21:35;101974.28;;;3.74;100.00
54808;BME280;40708;50.364;7.550;2024-01-30T08:24:04;101972.13;;;3.83;100.00
54808;BME280;40708;50.364;7.550;2024-01-30T08:26:31;101974.31;;;3.92;100.00
54808;BME280;40708;50.364;7.550;2024-01-30T08:28:56;101977.06;;;4.11;100.00
54808;BME280;40708;50.364;7.550;2024-01-30T08:31:21;101976.13;;;4.27;100.00
54808;BME280;40708;50.364;7.550;2024-01-30T08:33:46;101967.56;;;4.31;100.00
54808;BME280;40708;50.364;7.550;2024-01-30T08:36:12;101973.25;;;4.22;100.00
54808;BME280;40708;50.364;7.550;2024-01-30T08:38:37;101973.78;;;4.33;100.00
54808;BME280;40708;50.364;7.550;2024-01-30T08:41:03;101972.06;;;4.33;100.00
54808;BME280;40708;50.364;7.550;2024-01-30T08:43:28;101976.72;;;4.56;100.00
54808;BME280;40708;50.364;7.550;2024-01-30T08:45:53;101976.50;;;4.69;100.00
54808;BME280;40708;50.364;7.550;2024-01-30T08:48:19;101963.56;;;4.74;100.00
54808;BME280;40708;50.364;7.550;2024-01-30T08:50:44;101951.53;;;4.79;100.00
54808;BME280;40708;50.364;7.550;2024-01-30T08:53:09;101956.03;;;4.81;100.00
54808;BME280;40708;50.364;7.550;2024-01-30T08:55:34;101953.84;;;4.91;100.00
54808;BME280;40708;50.364;7.550;2024-01-30T08:57:59;101953.84;;;4.91;100.00
54808;BME280;40708;50.364;7.550;2024-01-30T09:00:25;101939.94;;;4.93;100.00
54808;BME280;40708;50.364;7.550;2024-01-30T09:02:50;101939.31;;;4.99;100.00
54808;BME280;40708;50.364;7.550;2024-01-30T09:05:15;101939.31;;;4.99;100.00
54808;BME280;40708;50.364;7.550;2024-01-30T09:07:41;101934.69;;;5.12;100.00
54808;BME280;40708;50.364;7.550;2024-01-30T09:10:06;101932.06;;;5.12;100.00
54808;BME280;40708;50.364;7.550;2024-01-30T09:12:32;101940.84;;;5.13;100.00
54808;BME280;40708;50.364;7.550;2024-01-30T09:14:57;101936.13;;;5.25;100.00
54808;BME280;40708;50.364;7.550;2024-01-30T09:17:22;101930.09;;;5.27;100.00
54808;BME280;40708;50.364;7.550;2024-01-30T09:19:47;57257.63;;;-140.80;100.00
54808;BME280;40708;50.364;7.550;2024-01-30T09:22:13;57257.63;;;-140.80;100.00
54808;BME280;40708;50.364;7.550;2024-01-30T09:24:38;57257.63;;;-140.80;100.00
54808;BME280;40708;50.364;7.550;2024-01-30T09:27:04;57257.63;;;-140.80;100.00
54808;BME280;40708;50.364;7.550;2024-01-30T09:29:29;57257.63;;;-140.80;100.00
54808;BME280;40708;50.364;7.550;2024-01-30T09:31:54;57257.63;;;-140.80;100.00
54808;BME280;40708;50.364;7.550;2024-01-30T09:34:19;57257.63;;;-140.80;100.00
54808;BME280;40708;50.364;7.550;2024-01-30T09:36:45;57257.63;;;-140.80;100.00
54808;BME280;40708;50.364;7.550;2024-01-30T09:39:10;57257.63;;;-140.80;100.00
54808;BME280;40708;50.364;7.550;2024-01-30T09:44:25;57257.63;;;-140.80;100.00
54808;BME280;40708;50.364;7.550;2024-01-30T09:46:51;57257.63;;;-140.80;100.00
54808;BME280;40708;50.364;7.550;2024-01-30T09:49:17;57257.63;;;-140.80;100.00
54808;BME280;40708;50.364;7.550;2024-01-30T09:51:44;57257.63;;;-140.80;100.00
54808;BME280;40708;50.364;7.550;2024-01-30T09:54:10;57257.63;;;-140.80;100.00
54808;BME280;40708;50.364;7.550;2024-01-30T09:56:37;57257.63;;;-140.80;100.00
54808;BME280;40708;50.364;7.550;2024-01-30T09:59:02;57257.63;;;-140.80;100.00
54808;BME280;40708;50.364;7.550;2024-01-30T10:01:28;57257.63;;;-140.80;100.00
54808;BME280;40708;50.364;7.550;2024-01-30T10:03:53;57257.63;;;-140.80;100.00
54808;BME280;40708;50.364;7.550;2024-01-30T10:06:19;57257.63;;;-140.80;100.00
54808;BME280;40708;50.364;7.550;2024-01-30T10:08:46;57257.63;;;-140.80;100.00
54808;BME280;40708;50.364;7.550;2024-01-30T10:11:11;57257.63;;;-140.80;100.00
54808;BME280;40708;50.364;7.550;2024-01-30T10:13:38;57257.63;;;-140.80;100.00
54808;BME280;40708;50.364;7.550;2024-01-30T10:16:04;57257.63;;;-140.80;100.00
54808;BME280;40708;50.364;7.550;2024-01-30T10:18:31;57257.63;;;-140.80;100.00
54808;BME280;40708;50.364;7.550;2024-01-30T10:20:57;57257.63;;;-140.80;100.00
54808;BME280;40708;50.364;7.550;2024-01-30T10:23:22;57257.63;;;-140.80;100.00
54808;BME280;40708;50.364;7.550;2024-01-30T10:25:47;57257.63;;;-140.80;100.00
54808;BME280;40708;50.364;7.550;2024-01-30T10:28:13;57257.63;;;-140.80;100.00
54808;BME280;40708;50.364;7.550;2024-01-30T10:30:38;57257.63;;;-140.80;100.00
54808;BME280;40708;50.364;7.550;2024-01-30T10:33:03;57257.63;;;-140.80;100.00
54808;BME280;40708;50.364;7.550;2024-01-30T10:35:29;57257.63;;;-140.80;100.00
54808;BME280;40708;50.364;7.550;2024-01-30T10:37:56;57257.63;;;-140.80;100.00
54808;BME280;40708;50.364;7.550;2024-01-30T10:40:27;57257.63;;;-140.80;100.00
54808;BME280;40708;50.364;7.550;2024-01-30T10:42:53;57257.63;;;-140.80;100.00
54808;BME280;40708;50.364;7.550;2024-01-30T10:45:21;57257.63;;;-140.80;100.00
54808;BME280;40708;50.364;7.550;2024-01-30T10:47:53;57257.63;;;-140.80;100.00
54808;BME280;40708;50.364;7.550;2024-01-30T10:50:19;57257.63;;;-140.80;100.00
54808;BME280;40708;50.364;7.550;2024-01-30T10:52:45;57257.63;;;-140.80;100.00
54808;BME280;40708;50.364;7.550;2024-01-30T10:55:12;57257.63;;;-140.80;100.00
54808;BME280;40708;50.364;7.550;2024-01-30T10:57:39;57257.63;;;-140.80;100.00
54808;BME280;40708;50.364;7.550;2024-01-30T11:00:07;57257.63;;;-140.80;100.00
54808;BME280;40708;50.364;7.550;2024-01-30T11:02:38;57257.63;;;-140.80;100.00
54808;BME280;40708;50.364;7.550;2024-01-30T11:05:05;57257.63;;;-140.80;100.00
54808;BME280;40708;50.364;7.550;2024-01-30T11:07:30;57257.63;;;-140.80;100.00
54808;BME280;40708;50.364;7.550;2024-01-30T11:12:26;57257.63;;;-140.80;100.00
54808;BME280;40708;50.364;7.550;2024-01-30T11:15:05;57257.63;;;-140.80;100.00
54808;BME280;40708;50.364;7.550;2024-01-30T11:20:25;57257.63;;;-140.80;100.00
54808;BME280;40708;50.364;7.550;2024-01-30T11:22:53;57257.63;;;-140.80;100.00
54808;BME280;40708;50.364;7.550;2024-01-30T11:25:22;57257.63;;;-140.80;100.00
54808;BME280;40708;50.364;7.550;2024-01-30T11:27:50;57257.63;;;-140.80;100.00
54808;BME280;40708;50.364;7.550;2024-01-30T11:30:22;57257.63;;;-140.80;100.00
54808;BME280;40708;50.364;7.550;2024-01-30T11:33:11;57257.63;;;-140.80;100.00
54808;BME280;40708;50.364;7.550;2024-01-30T11:35:44;57257.63;;;-140.80;100.00
54808;BME280;40708;50.364;7.550;2024-01-30T11:38:13;57257.63;;;-140.80;100.00
54808;BME280;40708;50.364;7.550;2024-01-30T11:40:39;57257.63;;;-140.80;100.00
54808;BME280;40708;50.364;7.550;2024-01-30T11:43:06;57257.63;;;-140.80;100.00
54808;BME280;40708;50.364;7.550;2024-01-30T11:45:32;57257.63;;;-140.80;100.00
54808;BME280;40708;50.364;7.550;2024-01-30T11:47:58;57257.63;;;-140.80;100.00
54808;BME280;40708;50.364;7.550;2024-01-30T11:50:29;57257.63;;;-140.80;100.00
54808;BME280;40708;50.364;7.550;2024-01-30T11:52:55;57257.63;;;-140.80;100.00
54808;BME280;40708;50.364;7.550;2024-01-30T11:55:20;57257.63;;;-140.80;100.00
54808;BME280;40708;50.364;7.550;2024-01-30T11:57:45;57257.63;;;-140.80;100.00
54808;BME280;40708;50.364;7.550;2024-01-30T12:00:18;57257.63;;;-140.80;100.00
54808;BME280;40708;50.364;7.550;2024-01-30T12:02:44;57257.63;;;-140.80;100.00
54808;BME280;40708;50.364;7.550;2024-01-30T12:05:13;57257.63;;;-140.80;100.00
54808;BME280;40708;50.364;7.550;2024-01-30T12:07:39;57257.63;;;-140.80;100.00
54808;BME280;40708;50.364;7.550;2024-01-30T12:10:04;57257.63;;;-140.80;100.00
54808;BME280;40708;50.364;7.550;2024-01-30T12:12:30;57257.63;;;-140.80;100.00
54808;BME280;40708;50.364;7.550;2024-01-30T12:14:56;57257.63;;;-140.80;100.00
54808;BME280;40708;50.364;7.550;2024-01-30T12:17:32;57257.63;;;-140.80;100.00
54808;BME280;40708;50.364;7.550;2024-01-30T12:20:13;57257.63;;;-140.80;100.00
54808;BME280;40708;50.364;7.550;2024-01-30T12:22:43;57257.63;;;-140.80;100.00
54808;BME280;40708;50.364;7.550;2024-01-30T12:25:16;57257.63;;;-140.80;100.00
54808;BME280;40708;50.364;7.550;2024-01-30T12:27:42;57257.63;;;-140.80;100.00
54808;BME280;40708;50.364;7.550;2024-01-30T12:30:09;57257.63;;;-140.80;100.00
54808;BME280;40708;50.364;7.550;2024-01-30T12:32:39;57257.63;;;-140.80;100.00
54808;BME280;40708;50.364;7.550;2024-01-30T12:35:09;57257.63;;;-140.80;100.00
54808;BME280;40708;50.364;7.550;2024-01-30T12:37:35;57257.63;;;-140.80;100.00
54808;BME280;40708;50.364;7.550;2024-01-30T12:40:00;57257.63;;;-140.80;100.00
54808;BME280;40708;50.364;7.550;2024-01-30T12:42:26;57257.63;;;-140.80;100.00
54808;BME280;40708;50.364;7.550;2024-01-30T12:44:52;57257.63;;;-140.80;100.00
54808;BME280;40708;50.364;7.550;2024-01-30T12:47:17;57257.63;;;-140.80;100.00